Аэропорт: Актау. Актау

ICAO: UATE

METAR:
2018/09/19 07:30
UATE 190730Z 30007MPS 240V340 9999 SCT043 21/08 Q1019 R30/0///70 NOSIG RMK QFE763/1017
METAR:
2018/09/19 06:18
TAF UATE 190504Z 1906/2006 30009G15MPS 9999 SCT030CB TX22/1909Z TN12/2002Z